sensor_id;sensor_type;location;lat;lon;timestamp;temperature;humidity
40670;DHT22;26355;45.528;9.234;2022-08-21T00:01:56;28.20;87.80
40670;DHT22;26355;45.528;9.234;2022-08-21T00:04:22;28.20;87.60
40670;DHT22;26355;45.528;9.234;2022-08-21T00:06:49;28.10;87.30
40670;DHT22;26355;45.528;9.234;2022-08-21T00:09:15;28.20;87.60
40670;DHT22;26355;45.528;9.234;2022-08-21T00:11:41;28.20;88.20
40670;DHT22;26355;45.528;9.234;2022-08-21T00:14:08;28.10;88.40
40670;DHT22;26355;45.528;9.234;2022-08-21T00:16:34;28.20;88.90
40670;DHT22;26355;45.528;9.234;2022-08-21T00:19:00;28.10;89.20
40670;DHT22;26355;45.528;9.234;2022-08-21T00:21:26;28.00;89.20
40670;DHT22;26355;45.528;9.234;2022-08-21T00:23:52;28.00;89.50
40670;DHT22;26355;45.528;9.234;2022-08-21T00:26:18;28.00;89.90
40670;DHT22;26355;45.528;9.234;2022-08-21T00:28:43;27.90;89.70
40670;DHT22;26355;45.528;9.234;2022-08-21T00:31:12;27.90;89.80
40670;DHT22;26355;45.528;9.234;2022-08-21T00:33:37;27.90;90.00
40670;DHT22;26355;45.528;9.234;2022-08-21T00:36:03;27.80;90.00
40670;DHT22;26355;45.528;9.234;2022-08-21T00:38:30;27.80;90.30
40670;DHT22;26355;45.528;9.234;2022-08-21T00:40:58;27.80;90.50
40670;DHT22;26355;45.528;9.234;2022-08-21T00:43:28;27.70;90.40
40670;DHT22;26355;45.528;9.234;2022-08-21T00:45:56;27.60;90.40
40670;DHT22;26355;45.528;9.234;2022-08-21T00:48:23;27.50;90.60
40670;DHT22;26355;45.528;9.234;2022-08-21T00:50:53;27.40;90.90
40670;DHT22;26355;45.528;9.234;2022-08-21T00:53:19;27.50;91.00
40670;DHT22;26355;45.528;9.234;2022-08-21T00:55:46;27.40;90.90
40670;DHT22;26355;45.528;9.234;2022-08-21T00:58:14;27.30;90.60
40670;DHT22;26355;45.528;9.234;2022-08-21T01:00:42;27.30;90.80
40670;DHT22;26355;45.528;9.234;2022-08-21T01:03:13;27.30;91.00
40670;DHT22;26355;45.528;9.234;2022-08-21T01:05:40;27.20;91.30
40670;DHT22;26355;45.528;9.234;2022-08-21T01:08:07;27.10;91.30
40670;DHT22;26355;45.528;9.234;2022-08-21T01:10:34;27.10;91.30
40670;DHT22;26355;45.528;9.234;2022-08-21T01:13:01;27.10;91.60
40670;DHT22;26355;45.528;9.234;2022-08-21T01:15:32;27.20;91.70
40670;DHT22;26355;45.528;9.234;2022-08-21T01:17:59;27.10;91.60
40670;DHT22;26355;45.528;9.234;2022-08-21T01:20:25;27.10;91.60
40670;DHT22;26355;45.528;9.234;2022-08-21T01:22:51;27.20;91.50
40670;DHT22;26355;45.528;9.234;2022-08-21T01:25:18;27.20;91.60
40670;DHT22;26355;45.528;9.234;2022-08-21T01:27:46;27.20;91.80
40670;DHT22;26355;45.528;9.234;2022-08-21T01:30:17;27.10;91.80
40670;DHT22;26355;45.528;9.234;2022-08-21T01:32:43;27.10;91.60
40670;DHT22;26355;45.528;9.234;2022-08-21T01:35:10;27.10;92.00
40670;DHT22;26355;45.528;9.234;2022-08-21T01:37:37;27.20;91.80
40670;DHT22;26355;45.528;9.234;2022-08-21T01:40:04;27.20;91.80
40670;DHT22;26355;45.528;9.234;2022-08-21T01:42:29;27.00;91.70
40670;DHT22;26355;45.528;9.234;2022-08-21T01:44:55;27.00;91.70
40670;DHT22;26355;45.528;9.234;2022-08-21T01:47:22;26.90;91.90
40670;DHT22;26355;45.528;9.234;2022-08-21T01:49:48;26.80;91.80
40670;DHT22;26355;45.528;9.234;2022-08-21T01:52:14;26.80;92.10
40670;DHT22;26355;45.528;9.234;2022-08-21T01:54:40;26.80;92.20
40670;DHT22;26355;45.528;9.234;2022-08-21T01:57:07;26.80;92.10
40670;DHT22;26355;45.528;9.234;2022-08-21T01:59:33;26.80;92.00
40670;DHT22;26355;45.528;9.234;2022-08-21T02:01:59;26.80;91.90
40670;DHT22;26355;45.528;9.234;2022-08-21T02:04:25;26.80;91.70
40670;DHT22;26355;45.528;9.234;2022-08-21T02:06:51;26.90;91.70
40670;DHT22;26355;45.528;9.234;2022-08-21T02:09:17;26.90;91.70
40670;DHT22;26355;45.528;9.234;2022-08-21T02:11:42;26.90;91.70
40670;DHT22;26355;45.528;9.234;2022-08-21T02:14:10;26.80;91.70
40670;DHT22;26355;45.528;9.234;2022-08-21T02:16:37;26.80;91.80
40670;DHT22;26355;45.528;9.234;2022-08-21T02:19:03;26.80;91.80
40670;DHT22;26355;45.528;9.234;2022-08-21T02:21:29;26.70;92.20
40670;DHT22;26355;45.528;9.234;2022-08-21T02:23:55;26.60;92.30
40670;DHT22;26355;45.528;9.234;2022-08-21T02:26:21;26.50;92.30
40670;DHT22;26355;45.528;9.234;2022-08-21T02:28:46;26.50;92.50
40670;DHT22;26355;45.528;9.234;2022-08-21T02:31:13;26.50;92.50
40670;DHT22;26355;45.528;9.234;2022-08-21T02:33:39;26.50;92.70
40670;DHT22;26355;45.528;9.234;2022-08-21T02:36:05;26.50;92.50
40670;DHT22;26355;45.528;9.234;2022-08-21T02:38:33;26.50;92.50
40670;DHT22;26355;45.528;9.234;2022-08-21T02:41:00;26.50;92.50
40670;DHT22;26355;45.528;9.234;2022-08-21T02:43:27;26.50;92.70
40670;DHT22;26355;45.528;9.234;2022-08-21T02:45:56;26.40;92.70
40670;DHT22;26355;45.528;9.234;2022-08-21T02:48:26;26.50;92.80
40670;DHT22;26355;45.528;9.234;2022-08-21T02:50:56;26.40;93.10
40670;DHT22;26355;45.528;9.234;2022-08-21T02:53:23;26.30;93.20
40670;DHT22;26355;45.528;9.234;2022-08-21T02:55:51;26.30;93.10
40670;DHT22;26355;45.528;9.234;2022-08-21T02:58:20;26.40;93.30
40670;DHT22;26355;45.528;9.234;2022-08-21T03:00:47;26.30;93.60
40670;DHT22;26355;45.528;9.234;2022-08-21T03:03:12;26.30;93.80
40670;DHT22;26355;45.528;9.234;2022-08-21T03:05:39;26.30;93.60
40670;DHT22;26355;45.528;9.234;2022-08-21T03:08:08;26.30;93.40
40670;DHT22;26355;45.528;9.234;2022-08-21T03:10:39;26.40;93.30
40670;DHT22;26355;45.528;9.234;2022-08-21T03:13:05;26.40;93.10
40670;DHT22;26355;45.528;9.234;2022-08-21T03:15:32;26.30;93.00
40670;DHT22;26355;45.528;9.234;2022-08-21T03:17:58;26.30;93.60
40670;DHT22;26355;45.528;9.234;2022-08-21T03:20:27;26.20;93.60
40670;DHT22;26355;45.528;9.234;2022-08-21T03:22:54;26.00;93.70
40670;DHT22;26355;45.528;9.234;2022-08-21T03:25:21;25.90;93.80
40670;DHT22;26355;45.528;9.234;2022-08-21T03:27:47;26.00;93.90
40670;DHT22;26355;45.528;9.234;2022-08-21T03:30:18;26.10;93.60
40670;DHT22;26355;45.528;9.234;2022-08-21T03:32:45;26.00;93.40
40670;DHT22;26355;45.528;9.234;2022-08-21T03:35:12;26.00;93.40
40670;DHT22;26355;45.528;9.234;2022-08-21T03:37:38;26.10;93.50
40670;DHT22;26355;45.528;9.234;2022-08-21T03:40:07;26.00;93.50
40670;DHT22;26355;45.528;9.234;2022-08-21T03:42:33;26.00;93.40
40670;DHT22;26355;45.528;9.234;2022-08-21T03:44:58;26.00;93.50
40670;DHT22;26355;45.528;9.234;2022-08-21T03:47:24;26.00;93.60
40670;DHT22;26355;45.528;9.234;2022-08-21T03:49:50;26.00;93.70
40670;DHT22;26355;45.528;9.234;2022-08-21T03:52:16;26.00;93.90
40670;DHT22;26355;45.528;9.234;2022-08-21T03:54:42;26.00;94.00
40670;DHT22;26355;45.528;9.234;2022-08-21T03:57:09;26.00;93.80
40670;DHT22;26355;45.528;9.234;2022-08-21T03:59:35;26.00;93.80
40670;DHT22;26355;45.528;9.234;2022-08-21T04:02:02;26.00;93.70
40670;DHT22;26355;45.528;9.234;2022-08-21T04:04:29;25.90;94.00
40670;DHT22;26355;45.528;9.234;2022-08-21T04:06:56;26.00;94.10
40670;DHT22;26355;45.528;9.234;2022-08-21T04:09:22;25.90;94.20
40670;DHT22;26355;45.528;9.234;2022-08-21T04:11:48;25.80;94.20
40670;DHT22;26355;45.528;9.234;2022-08-21T04:14:14;25.80;94.20
40670;DHT22;26355;45.528;9.234;2022-08-21T04:16:41;25.80;94.20
40670;DHT22;26355;45.528;9.234;2022-08-21T04:19:08;25.80;94.20
40670;DHT22;26355;45.528;9.234;2022-08-21T04:21:35;25.80;94.40
40670;DHT22;26355;45.528;9.234;2022-08-21T04:24:01;25.70;94.50
40670;DHT22;26355;45.528;9.234;2022-08-21T04:26:28;25.80;94.60
40670;DHT22;26355;45.528;9.234;2022-08-21T04:28:54;25.70;94.90
40670;DHT22;26355;45.528;9.234;2022-08-21T04:31:23;25.70;94.90
40670;DHT22;26355;45.528;9.234;2022-08-21T04:33:49;25.70;95.10
40670;DHT22;26355;45.528;9.234;2022-08-21T04:36:16;25.70;95.30
40670;DHT22;26355;45.528;9.234;2022-08-21T04:38:44;25.70;95.60
40670;DHT22;26355;45.528;9.234;2022-08-21T04:41:10;25.70;95.90
40670;DHT22;26355;45.528;9.234;2022-08-21T04:43:35;25.70;96.00
40670;DHT22;26355;45.528;9.234;2022-08-21T04:46:01;25.60;96.30
40670;DHT22;26355;45.528;9.234;2022-08-21T04:48:27;25.50;96.60
40670;DHT22;26355;45.528;9.234;2022-08-21T04:53:51;25.40;97.50
40670;DHT22;26355;45.528;9.234;2022-08-21T04:56:24;25.40;97.90
40670;DHT22;26355;45.528;9.234;2022-08-21T04:58:52;25.40;97.80
40670;DHT22;26355;45.528;9.234;2022-08-21T05:01:21;25.40;97.80
40670;DHT22;26355;45.528;9.234;2022-08-21T05:03:49;25.40;97.60
40670;DHT22;26355;45.528;9.234;2022-08-21T05:06:16;25.40;97.50
40670;DHT22;26355;45.528;9.234;2022-08-21T05:08:45;25.40;97.70
40670;DHT22;26355;45.528;9.234;2022-08-21T05:11:11;25.50;97.50
40670;DHT22;26355;45.528;9.234;2022-08-21T05:13:38;25.50;97.50
40670;DHT22;26355;45.528;9.234;2022-08-21T05:16:09;25.40;98.00
40670;DHT22;26355;45.528;9.234;2022-08-21T05:18:35;25.40;97.70
40670;DHT22;26355;45.528;9.234;2022-08-21T05:21:07;25.40;97.60
40670;DHT22;26355;45.528;9.234;2022-08-21T05:23:32;25.40;97.70
40670;DHT22;26355;45.528;9.234;2022-08-21T05:25:59;25.40;97.90
40670;DHT22;26355;45.528;9.234;2022-08-21T05:28:24;25.30;98.30
40670;DHT22;26355;45.528;9.234;2022-08-21T05:30:51;25.30;98.30
40670;DHT22;26355;45.528;9.234;2022-08-21T05:33:16;25.50;98.30
40670;DHT22;26355;45.528;9.234;2022-08-21T05:35:42;25.50;98.20
40670;DHT22;26355;45.528;9.234;2022-08-21T05:38:08;25.50;98.20
40670;DHT22;26355;45.528;9.234;2022-08-21T05:40:36;25.60;98.40
40670;DHT22;26355;45.528;9.234;2022-08-21T05:43:03;25.60;98.60
40670;DHT22;26355;45.528;9.234;2022-08-21T05:45:32;25.70;98.60
40670;DHT22;26355;45.528;9.234;2022-08-21T05:48:04;25.80;98.50
40670;DHT22;26355;45.528;9.234;2022-08-21T05:50:30;25.80;98.00
40670;DHT22;26355;45.528;9.234;2022-08-21T05:52:56;25.90;97.70
40670;DHT22;26355;45.528;9.234;2022-08-21T05:55:22;26.00;97.50
40670;DHT22;26355;45.528;9.234;2022-08-21T05:57:48;26.00;97.50
40670;DHT22;26355;45.528;9.234;2022-08-21T06:00:14;26.00;97.50
40670;DHT22;26355;45.528;9.234;2022-08-21T06:02:40;26.10;97.30
40670;DHT22;26355;45.528;9.234;2022-08-21T06:05:06;26.20;96.80
40670;DHT22;26355;45.528;9.234;2022-08-21T06:07:32;26.20;97.30
40670;DHT22;26355;45.528;9.234;2022-08-21T06:09:58;26.30;97.60
40670;DHT22;26355;45.528;9.234;2022-08-21T06:12:23;26.50;97.70
40670;DHT22;26355;45.528;9.234;2022-08-21T06:14:50;26.80;97.30
40670;DHT22;26355;45.528;9.234;2022-08-21T06:17:17;27.30;96.90
40670;DHT22;26355;45.528;9.234;2022-08-21T06:19:43;27.80;95.90
40670;DHT22;26355;45.528;9.234;2022-08-21T06:22:09;28.20;95.30
40670;DHT22;26355;45.528;9.234;2022-08-21T06:24:34;28.50;94.60
40670;DHT22;26355;45.528;9.234;2022-08-21T06:27:05;28.90;94.40
40670;DHT22;26355;45.528;9.234;2022-08-21T06:29:32;29.20;93.90
40670;DHT22;26355;45.528;9.234;2022-08-21T06:31:57;29.40;93.30
40670;DHT22;26355;45.528;9.234;2022-08-21T06:34:23;29.60;93.00
40670;DHT22;26355;45.528;9.234;2022-08-21T06:36:49;29.80;92.50
40670;DHT22;26355;45.528;9.234;2022-08-21T06:39:14;29.80;92.30
40670;DHT22;26355;45.528;9.234;2022-08-21T06:41:40;29.90;92.00
40670;DHT22;26355;45.528;9.234;2022-08-21T06:44:06;30.10;92.00
40670;DHT22;26355;45.528;9.234;2022-08-21T06:46:31;30.20;91.90
40670;DHT22;26355;45.528;9.234;2022-08-21T06:48:58;30.20;91.70
40670;DHT22;26355;45.528;9.234;2022-08-21T06:51:25;30.20;91.60
40670;DHT22;26355;45.528;9.234;2022-08-21T06:53:54;30.20;91.50
40670;DHT22;26355;45.528;9.234;2022-08-21T06:56:20;30.40;91.80
40670;DHT22;26355;45.528;9.234;2022-08-21T06:58:45;30.50;91.60
40670;DHT22;26355;45.528;9.234;2022-08-21T07:01:11;30.60;90.90
40670;DHT22;26355;45.528;9.234;2022-08-21T07:03:39;30.70;90.20
40670;DHT22;26355;45.528;9.234;2022-08-21T07:06:06;30.80;90.20
40670;DHT22;26355;45.528;9.234;2022-08-21T07:08:33;30.80;90.30
40670;DHT22;26355;45.528;9.234;2022-08-21T07:11:03;30.60;90.30
40670;DHT22;26355;45.528;9.234;2022-08-21T07:13:29;30.40;89.90
40670;DHT22;26355;45.528;9.234;2022-08-21T07:15:55;30.30;90.40
40670;DHT22;26355;45.528;9.234;2022-08-21T07:18:21;30.40;90.60
40670;DHT22;26355;45.528;9.234;2022-08-21T07:20:47;30.30;90.70
40670;DHT22;26355;45.528;9.234;2022-08-21T07:23:28;30.50;90.80
40670;DHT22;26355;45.528;9.234;2022-08-21T07:25:54;30.60;90.50
40670;DHT22;26355;45.528;9.234;2022-08-21T07:28:20;30.60;90.70
40670;DHT22;26355;45.528;9.234;2022-08-21T07:30:51;30.40;90.30
40670;DHT22;26355;45.528;9.234;2022-08-21T07:33:17;30.20;90.30
40670;DHT22;26355;45.528;9.234;2022-08-21T07:35:43;29.80;90.50
40670;DHT22;26355;45.528;9.234;2022-08-21T07:38:09;29.80;90.70
40670;DHT22;26355;45.528;9.234;2022-08-21T07:40:35;29.70;90.60
40670;DHT22;26355;45.528;9.234;2022-08-21T07:43:01;29.80;90.70
40670;DHT22;26355;45.528;9.234;2022-08-21T07:45:27;29.70;90.60
40670;DHT22;26355;45.528;9.234;2022-08-21T07:47:52;29.70;90.70
40670;DHT22;26355;45.528;9.234;2022-08-21T07:50:18;29.60;90.00
40670;DHT22;26355;45.528;9.234;2022-08-21T07:52:45;29.60;90.40
40670;DHT22;26355;45.528;9.234;2022-08-21T07:55:13;29.70;90.00
40670;DHT22;26355;45.528;9.234;2022-08-21T07:57:39;29.60;89.80
40670;DHT22;26355;45.528;9.234;2022-08-21T08:00:07;29.30;90.20
40670;DHT22;26355;45.528;9.234;2022-08-21T08:02:34;29.30;90.60
40670;DHT22;26355;45.528;9.234;2022-08-21T08:05:04;29.40;90.50
40670;DHT22;26355;45.528;9.234;2022-08-21T08:07:31;29.50;90.50
40670;DHT22;26355;45.528;9.234;2022-08-21T08:09:57;29.50;90.40
40670;DHT22;26355;45.528;9.234;2022-08-21T08:12:24;29.30;90.10
40670;DHT22;26355;45.528;9.234;2022-08-21T08:14:58;29.30;90.40
40670;DHT22;26355;45.528;9.234;2022-08-21T08:17:24;29.30;90.60
40670;DHT22;26355;45.528;9.234;2022-08-21T08:19:51;29.40;90.80
40670;DHT22;26355;45.528;9.234;2022-08-21T08:22:19;29.30;90.60
40670;DHT22;26355;45.528;9.234;2022-08-21T08:24:47;29.40;90.90
40670;DHT22;26355;45.528;9.234;2022-08-21T08:27:14;29.30;90.10
40670;DHT22;26355;45.528;9.234;2022-08-21T08:29:40;29.10;90.30
40670;DHT22;26355;45.528;9.234;2022-08-21T08:32:06;29.30;90.60
40670;DHT22;26355;45.528;9.234;2022-08-21T08:34:35;29.40;90.80
40670;DHT22;26355;45.528;9.234;2022-08-21T08:37:02;29.50;91.10
40670;DHT22;26355;45.528;9.234;2022-08-21T08:39:29;29.70;90.90
40670;DHT22;26355;45.528;9.234;2022-08-21T08:42:09;29.70;90.70
40670;DHT22;26355;45.528;9.234;2022-08-21T08:44:37;29.80;90.50
40670;DHT22;26355;45.528;9.234;2022-08-21T08:47:04;29.90;90.50
40670;DHT22;26355;45.528;9.234;2022-08-21T08:49:58;30.00;90.10
40670;DHT22;26355;45.528;9.234;2022-08-21T08:52:31;30.00;87.30
40670;DHT22;26355;45.528;9.234;2022-08-21T08:55:09;29.90;88.10
40670;DHT22;26355;45.528;9.234;2022-08-21T08:57:38;29.90;87.90
40670;DHT22;26355;45.528;9.234;2022-08-21T09:00:08;30.20;88.50
40670;DHT22;26355;45.528;9.234;2022-08-21T09:02:38;30.30;88.30
40670;DHT22;26355;45.528;9.234;2022-08-21T09:05:04;30.50;88.60
40670;DHT22;26355;45.528;9.234;2022-08-21T09:07:35;30.30;85.90
40670;DHT22;26355;45.528;9.234;2022-08-21T09:10:10;30.30;85.90
40670;DHT22;26355;45.528;9.234;2022-08-21T09:15:32;30.50;85.80
40670;DHT22;26355;45.528;9.234;2022-08-21T09:21:34;30.50;86.20
40670;DHT22;26355;45.528;9.234;2022-08-21T09:24:16;30.40;86.50
40670;DHT22;26355;45.528;9.234;2022-08-21T09:29:21;30.50;86.80
40670;DHT22;26355;45.528;9.234;2022-08-21T09:31:49;30.70;87.20
40670;DHT22;26355;45.528;9.234;2022-08-21T09:34:26;30.60;87.20
40670;DHT22;26355;45.528;9.234;2022-08-21T09:36:52;30.70;86.90
40670;DHT22;26355;45.528;9.234;2022-08-21T09:39:32;30.90;86.90
40670;DHT22;26355;45.528;9.234;2022-08-21T09:42:08;30.80;87.00
40670;DHT22;26355;45.528;9.234;2022-08-21T09:44:37;30.90;86.00
40670;DHT22;26355;45.528;9.234;2022-08-21T09:47:06;30.80;87.00
40670;DHT22;26355;45.528;9.234;2022-08-21T09:49:35;30.90;86.30
40670;DHT22;26355;45.528;9.234;2022-08-21T09:52:17;30.90;85.90
40670;DHT22;26355;45.528;9.234;2022-08-21T09:54:45;31.00;86.50
40670;DHT22;26355;45.528;9.234;2022-08-21T09:57:29;31.10;86.30
40670;DHT22;26355;45.528;9.234;2022-08-21T10:00:26;31.00;85.30
40670;DHT22;26355;45.528;9.234;2022-08-21T10:02:53;31.10;86.40
40670;DHT22;26355;45.528;9.234;2022-08-21T10:05:22;31.10;86.30
40670;DHT22;26355;45.528;9.234;2022-08-21T10:07:48;31.30;86.60
40670;DHT22;26355;45.528;9.234;2022-08-21T10:10:21;31.30;86.10
40670;DHT22;26355;45.528;9.234;2022-08-21T10:15:44;31.40;86.30
40670;DHT22;26355;45.528;9.234;2022-08-21T10:18:25;31.30;88.10
40670;DHT22;26355;45.528;9.234;2022-08-21T10:21:21;31.20;88.60
40670;DHT22;26355;45.528;9.234;2022-08-21T10:46:02;32.10;84.90
40670;DHT22;26355;45.528;9.234;2022-08-21T10:48:36;32.10;85.00
40670;DHT22;26355;45.528;9.234;2022-08-21T10:53:55;32.20;84.70
40670;DHT22;26355;45.528;9.234;2022-08-21T10:56:24;32.30;83.80
40670;DHT22;26355;45.528;9.234;2022-08-21T11:04:15;32.00;83.80
40670;DHT22;26355;45.528;9.234;2022-08-21T11:06:47;32.10;82.10
40670;DHT22;26355;45.528;9.234;2022-08-21T11:09:17;32.10;82.40
40670;DHT22;26355;45.528;9.234;2022-08-21T11:11:51;32.20;82.50
40670;DHT22;26355;45.528;9.234;2022-08-21T11:14:41;32.20;82.90
40670;DHT22;26355;45.528;9.234;2022-08-21T11:17:14;32.20;82.60
40670;DHT22;26355;45.528;9.234;2022-08-21T11:19:48;32.20;83.10
40670;DHT22;26355;45.528;9.234;2022-08-21T11:22:28;32.30;83.40
40670;DHT22;26355;45.528;9.234;2022-08-21T11:24:59;32.30;82.90
40670;DHT22;26355;45.528;9.234;2022-08-21T11:30:00;32.30;82.00
40670;DHT22;26355;45.528;9.234;2022-08-21T11:38:26;32.60;81.50
40670;DHT22;26355;45.528;9.234;2022-08-21T11:51:21;32.60;80.90
40670;DHT22;26355;45.528;9.234;2022-08-21T11:53:48;32.50;79.40
40670;DHT22;26355;45.528;9.234;2022-08-21T11:56:40;32.60;80.00
40670;DHT22;26355;45.528;9.234;2022-08-21T12:02:18;32.70;78.70
40670;DHT22;26355;45.528;9.234;2022-08-21T12:04:53;32.80;79.10
40670;DHT22;26355;45.528;9.234;2022-08-21T12:07:39;32.80;78.60
40670;DHT22;26355;45.528;9.234;2022-08-21T12:10:12;32.70;78.70
40670;DHT22;26355;45.528;9.234;2022-08-21T12:12:40;32.80;79.00
40670;DHT22;26355;45.528;9.234;2022-08-21T12:18:07;33.00;76.60
40670;DHT22;26355;45.528;9.234;2022-08-21T12:21:02;33.00;76.80
40670;DHT22;26355;45.528;9.234;2022-08-21T12:24:30;33.00;76.60
40670;DHT22;26355;45.528;9.234;2022-08-21T12:26:53;33.00;77.00
40670;DHT22;26355;45.528;9.234;2022-08-21T12:29:31;33.10;77.50
40670;DHT22;26355;45.528;9.234;2022-08-21T12:32:04;33.00;76.40
40670;DHT22;26355;45.528;9.234;2022-08-21T12:34:55;32.80;76.70
40670;DHT22;26355;45.528;9.234;2022-08-21T12:37:28;32.80;76.80
40670;DHT22;26355;45.528;9.234;2022-08-21T12:39:58;32.90;77.20
40670;DHT22;26355;45.528;9.234;2022-08-21T12:42:39;32.90;77.30
40670;DHT22;26355;45.528;9.234;2022-08-21T12:45:19;32.90;76.20
40670;DHT22;26355;45.528;9.234;2022-08-21T12:47:51;32.90;76.50
40670;DHT22;26355;45.528;9.234;2022-08-21T12:51:05;32.90;75.90
40670;DHT22;26355;45.528;9.234;2022-08-21T12:53:30;33.00;76.00
40670;DHT22;26355;45.528;9.234;2022-08-21T12:55:57;33.00;75.30
40670;DHT22;26355;45.528;9.234;2022-08-21T12:58:29;33.00;75.40
40670;DHT22;26355;45.528;9.234;2022-08-21T13:01:05;33.10;74.80
40670;DHT22;26355;45.528;9.234;2022-08-21T13:03:33;32.90;73.60
40670;DHT22;26355;45.528;9.234;2022-08-21T13:06:02;33.00;74.70
40670;DHT22;26355;45.528;9.234;2022-08-21T13:08:29;33.00;74.50
40670;DHT22;26355;45.528;9.234;2022-08-21T13:11:05;33.00;74.80
40670;DHT22;26355;45.528;9.234;2022-08-21T13:13:33;33.00;73.70
40670;DHT22;26355;45.528;9.234;2022-08-21T13:16:05;33.10;74.40
40670;DHT22;26355;45.528;9.234;2022-08-21T13:18:34;33.20;74.20
40670;DHT22;26355;45.528;9.234;2022-08-21T13:21:06;33.20;74.30
40670;DHT22;26355;45.528;9.234;2022-08-21T13:23:32;33.20;75.40
40670;DHT22;26355;45.528;9.234;2022-08-21T13:25:58;33.20;75.10
40670;DHT22;26355;45.528;9.234;2022-08-21T13:28:32;33.30;74.40
40670;DHT22;26355;45.528;9.234;2022-08-21T13:30:59;33.20;73.00
40670;DHT22;26355;45.528;9.234;2022-08-21T13:33:27;33.00;73.40
40670;DHT22;26355;45.528;9.234;2022-08-21T13:38:26;33.10;74.90
40670;DHT22;26355;45.528;9.234;2022-08-21T13:40:56;33.10;74.00
40670;DHT22;26355;45.528;9.234;2022-08-21T13:43:28;33.20;73.30
40670;DHT22;26355;45.528;9.234;2022-08-21T13:45:56;33.20;73.00
40670;DHT22;26355;45.528;9.234;2022-08-21T13:48:25;33.20;73.10
40670;DHT22;26355;45.528;9.234;2022-08-21T13:50:52;33.10;73.50
40670;DHT22;26355;45.528;9.234;2022-08-21T13:53:31;33.10;73.80
40670;DHT22;26355;45.528;9.234;2022-08-21T13:55:58;33.00;73.70
40670;DHT22;26355;45.528;9.234;2022-08-21T13:58:29;33.00;74.10
40670;DHT22;26355;45.528;9.234;2022-08-21T14:00:56;33.00;74.30
40670;DHT22;26355;45.528;9.234;2022-08-21T14:05:57;32.90;73.70
40670;DHT22;26355;45.528;9.234;2022-08-21T14:10:52;33.10;74.10
40670;DHT22;26355;45.528;9.234;2022-08-21T14:13:36;33.10;73.50
40670;DHT22;26355;45.528;9.234;2022-08-21T14:16:17;33.00;72.50
40670;DHT22;26355;45.528;9.234;2022-08-21T14:21:28;33.00;72.70
40670;DHT22;26355;45.528;9.234;2022-08-21T14:24:07;33.00;73.30
40670;DHT22;26355;45.528;9.234;2022-08-21T14:26:37;33.20;74.70
40670;DHT22;26355;45.528;9.234;2022-08-21T14:29:09;33.20;72.30
40670;DHT22;26355;45.528;9.234;2022-08-21T14:31:35;33.20;71.90
40670;DHT22;26355;45.528;9.234;2022-08-21T14:34:01;33.20;72.20
40670;DHT22;26355;45.528;9.234;2022-08-21T14:36:27;33.30;72.80
40670;DHT22;26355;45.528;9.234;2022-08-21T14:38:53;33.10;72.20
40670;DHT22;26355;45.528;9.234;2022-08-21T14:41:22;33.10;72.50
40670;DHT22;26355;45.528;9.234;2022-08-21T14:43:48;33.10;73.00
40670;DHT22;26355;45.528;9.234;2022-08-21T14:46:20;33.10;72.10
40670;DHT22;26355;45.528;9.234;2022-08-21T14:48:46;32.90;72.00
40670;DHT22;26355;45.528;9.234;2022-08-21T14:51:12;33.00;72.60
40670;DHT22;26355;45.528;9.234;2022-08-21T14:53:38;33.00;72.70
40670;DHT22;26355;45.528;9.234;2022-08-21T14:56:04;33.00;72.80
40670;DHT22;26355;45.528;9.234;2022-08-21T14:58:31;33.00;72.90
40670;DHT22;26355;45.528;9.234;2022-08-21T15:00:57;33.00;72.80
40670;DHT22;26355;45.528;9.234;2022-08-21T15:03:25;33.00;73.00
40670;DHT22;26355;45.528;9.234;2022-08-21T15:05:51;32.90;72.30
40670;DHT22;26355;45.528;9.234;2022-08-21T15:08:17;33.00;72.20
40670;DHT22;26355;45.528;9.234;2022-08-21T15:10:43;33.10;72.00
40670;DHT22;26355;45.528;9.234;2022-08-21T15:13:09;33.10;72.30
40670;DHT22;26355;45.528;9.234;2022-08-21T15:15:44;33.10;72.20
40670;DHT22;26355;45.528;9.234;2022-08-21T15:18:10;33.10;70.60
40670;DHT22;26355;45.528;9.234;2022-08-21T15:20:37;33.10;70.90
40670;DHT22;26355;45.528;9.234;2022-08-21T15:23:07;33.10;71.10
40670;DHT22;26355;45.528;9.234;2022-08-21T15:25:34;33.20;71.20
40670;DHT22;26355;45.528;9.234;2022-08-21T15:28:00;33.20;71.00
40670;DHT22;26355;45.528;9.234;2022-08-21T15:30:36;33.10;70.80
40670;DHT22;26355;45.528;9.234;2022-08-21T15:33:02;33.20;71.10
40670;DHT22;26355;45.528;9.234;2022-08-21T15:35:27;33.10;71.10
40670;DHT22;26355;45.528;9.234;2022-08-21T15:37:53;33.10;71.30
40670;DHT22;26355;45.528;9.234;2022-08-21T15:40:19;33.10;70.80
40670;DHT22;26355;45.528;9.234;2022-08-21T15:42:45;33.00;71.10
40670;DHT22;26355;45.528;9.234;2022-08-21T15:45:12;32.90;70.60
40670;DHT22;26355;45.528;9.234;2022-08-21T15:47:43;32.90;71.70
40670;DHT22;26355;45.528;9.234;2022-08-21T15:50:10;32.70;72.00
40670;DHT22;26355;45.528;9.234;2022-08-21T15:52:36;32.70;72.50
40670;DHT22;26355;45.528;9.234;2022-08-21T15:55:04;32.70;72.80
40670;DHT22;26355;45.528;9.234;2022-08-21T15:57:30;32.70;72.80
40670;DHT22;26355;45.528;9.234;2022-08-21T16:00:03;32.70;72.70
40670;DHT22;26355;45.528;9.234;2022-08-21T16:02:36;32.70;72.40
40670;DHT22;26355;45.528;9.234;2022-08-21T16:05:02;32.80;72.10
40670;DHT22;26355;45.528;9.234;2022-08-21T16:07:28;32.80;71.50
40670;DHT22;26355;45.528;9.234;2022-08-21T16:09:54;32.80;72.40
40670;DHT22;26355;45.528;9.234;2022-08-21T16:12:32;32.70;72.70
40670;DHT22;26355;45.528;9.234;2022-08-21T16:15:00;32.60;72.70
40670;DHT22;26355;45.528;9.234;2022-08-21T16:17:32;32.60;72.90
40670;DHT22;26355;45.528;9.234;2022-08-21T16:20:00;32.50;73.10
40670;DHT22;26355;45.528;9.234;2022-08-21T16:22:27;32.50;73.10
40670;DHT22;26355;45.528;9.234;2022-08-21T16:24:52;32.50;73.10
40670;DHT22;26355;45.528;9.234;2022-08-21T16:27:18;32.50;73.20
40670;DHT22;26355;45.528;9.234;2022-08-21T16:29:44;32.60;73.40
40670;DHT22;26355;45.528;9.234;2022-08-21T16:32:11;32.50;73.20
40670;DHT22;26355;45.528;9.234;2022-08-21T16:34:39;32.60;73.20
40670;DHT22;26355;45.528;9.234;2022-08-21T16:37:06;32.50;73.30
40670;DHT22;26355;45.528;9.234;2022-08-21T16:39:32;32.60;73.20
40670;DHT22;26355;45.528;9.234;2022-08-21T16:41:57;32.40;73.30
40670;DHT22;26355;45.528;9.234;2022-08-21T16:44:23;32.40;73.50
40670;DHT22;26355;45.528;9.234;2022-08-21T16:46:49;32.30;74.00
40670;DHT22;26355;45.528;9.234;2022-08-21T16:49:15;32.30;74.20
40670;DHT22;26355;45.528;9.234;2022-08-21T16:51:40;32.20;74.40
40670;DHT22;26355;45.528;9.234;2022-08-21T16:54:08;32.20;74.70
40670;DHT22;26355;45.528;9.234;2022-08-21T16:56:33;32.30;74.50
40670;DHT22;26355;45.528;9.234;2022-08-21T16:59:00;32.30;74.30
40670;DHT22;26355;45.528;9.234;2022-08-21T17:01:28;32.30;74.30